BAW122 EDDF-EGKK
Flight info
| Callsign | BAW122 |
|---|---|
| Flight time | 1h 10m |
| Altitude | 34000 |
| Route | OBOKA3W/25C OBOKA Z29 TORNU DCT BREDA DCT VICOT DCT GALSO Q63 ARREK Y4 TEBRA DCT ABTUM DCT ARNUN DCT LARCK |
| Aircraft | B38M/M-SDE1FGHILORVWXY/HB1 |
Departure
| Time | 2026-05-07 10:33 |
|---|---|
| Airport | Frankfurt Main Airport (EDDF) |
Arrival
| Time | 2026-05-07 11:43 |
|---|---|
| Airport | London Gatwick Airport (EGKK) |
| Time | Latitude | Longitude | Altitude | Speed | Heading |
|---|---|---|---|---|---|
| 2026-05-07 10:03 | 50.04896 | 8.56990 | 364 ft | 0 kts | 295° |
| 2026-05-07 10:20 | 50.04895 | 8.56992 | 360 ft | 3 kts | 295° |
| 2026-05-07 10:20 | 50.04887 | 8.57020 | 365 ft | 3 kts | 295° |
| 2026-05-07 10:20 | 50.04879 | 8.57047 | 361 ft | 3 kts | 323° |
| 2026-05-07 10:21 | 50.04861 | 8.57054 | 358 ft | 2 kts | 27° |
| 2026-05-07 10:21 | 50.04856 | 8.57050 | 358 ft | 0 kts | 27° |
| 2026-05-07 10:25 | 50.04858 | 8.57051 | 358 ft | 0 kts | 27° |
| 2026-05-07 10:25 | 50.04867 | 8.57058 | 360 ft | 3 kts | 25° |
| 2026-05-07 10:25 | 50.04877 | 8.57068 | 365 ft | 0 kts | 43° |
| 2026-05-07 10:26 | 50.04881 | 8.57096 | 361 ft | 5 kts | 89° |
| 2026-05-07 10:26 | 50.04873 | 8.57107 | 365 ft | 2 kts | 165° |
| 2026-05-07 10:26 | 50.04827 | 8.57094 | 362 ft | 8 kts | 205° |
| 2026-05-07 10:26 | 50.04763 | 8.57049 | 360 ft | 12 kts | 204° |
| 2026-05-07 10:27 | 50.04677 | 8.56985 | 357 ft | 15 kts | 206° |
| 2026-05-07 10:27 | 50.04626 | 8.56947 | 360 ft | 0 kts | 200° |
| 2026-05-07 10:27 | 50.04617 | 8.56943 | 358 ft | 4 kts | 198° |
| 2026-05-07 10:27 | 50.04574 | 8.56922 | 355 ft | 9 kts | 197° |
| 2026-05-07 10:28 | 50.04524 | 8.56889 | 357 ft | 6 kts | 186° |
| 2026-05-07 10:28 | 50.04508 | 8.56890 | 356 ft | 3 kts | 154° |
| 2026-05-07 10:28 | 50.04489 | 8.56971 | 348 ft | 9 kts | 82° |
| 2026-05-07 10:28 | 50.04511 | 8.57073 | 353 ft | 11 kts | 68° |
| 2026-05-07 10:29 | 50.04546 | 8.57198 | 353 ft | 14 kts | 66° |
| 2026-05-07 10:29 | 50.04585 | 8.57347 | 349 ft | 15 kts | 69° |
| 2026-05-07 10:29 | 50.04616 | 8.57499 | 352 ft | 15 kts | 71° |
| 2026-05-07 10:30 | 50.04674 | 8.57714 | 358 ft | 11 kts | 72° |
| 2026-05-07 10:30 | 50.04699 | 8.57847 | 352 ft | 13 kts | 78° |
| 2026-05-07 10:30 | 50.04673 | 8.57971 | 358 ft | 12 kts | 139° |
| 2026-05-07 10:30 | 50.04581 | 8.58035 | 344 ft | 17 kts | 158° |
| 2026-05-07 10:31 | 50.04481 | 8.58093 | 335 ft | 7 kts | 159° |
| 2026-05-07 10:31 | 50.04474 | 8.58096 | 336 ft | 0 kts | 160° |
| 2026-05-07 10:32 | 50.04448 | 8.58112 | 332 ft | 8 kts | 159° |
| 2026-05-07 10:32 | 50.04394 | 8.58122 | 331 ft | 6 kts | 200° |
| 2026-05-07 10:32 | 50.04368 | 8.58083 | 331 ft | 5 kts | 241° |
| 2026-05-07 10:32 | 50.04354 | 8.58031 | 332 ft | 6 kts | 248° |
| 2026-05-07 10:33 | 50.04289 | 8.57759 | 332 ft | 65 kts | 249° |
| 2026-05-07 10:33 | 50.04030 | 8.56697 | 356 ft | 141 kts | 249° |
| 2026-05-07 10:33 | 50.03631 | 8.55037 | 642 ft | 176 kts | 251° |
| 2026-05-07 10:33 | 50.03178 | 8.53211 | 1475 ft | 177 kts | 251° |
| 2026-05-07 10:34 | 50.02806 | 8.51621 | 2592 ft | 147 kts | 253° |
| 2026-05-07 10:34 | 50.02366 | 8.50156 | 3012 ft | 165 kts | 236° |
| 2026-05-07 10:34 | 50.01475 | 8.48820 | 3446 ft | 183 kts | 213° |
| 2026-05-07 10:34 | 50.00334 | 8.48066 | 4253 ft | 181 kts | 192° |
| 2026-05-07 10:35 | 49.99051 | 8.47778 | 4812 ft | 193 kts | 190° |
| 2026-05-07 10:35 | 49.97667 | 8.47464 | 5298 ft | 208 kts | 190° |
| 2026-05-07 10:35 | 49.96189 | 8.47112 | 5859 ft | 221 kts | 194° |
| 2026-05-07 10:35 | 49.94636 | 8.46384 | 6036 ft | 249 kts | 198° |
| 2026-05-07 10:36 | 49.92954 | 8.45619 | 6015 ft | 252 kts | 199° |
| 2026-05-07 10:36 | 49.91422 | 8.44385 | 6041 ft | 249 kts | 226° |
| 2026-05-07 10:36 | 49.90387 | 8.42251 | 6011 ft | 248 kts | 240° |
| 2026-05-07 10:36 | 49.89503 | 8.39949 | 6012 ft | 248 kts | 242° |
| 2026-05-07 10:37 | 49.88728 | 8.37608 | 6016 ft | 247 kts | 256° |
| 2026-05-07 10:37 | 49.88598 | 8.34886 | 6030 ft | 260 kts | 275° |
| 2026-05-07 10:37 | 49.88749 | 8.32127 | 6761 ft | 260 kts | 277° |
| 2026-05-07 10:37 | 49.88920 | 8.29333 | 7659 ft | 261 kts | 276° |
| 2026-05-07 10:38 | 49.89239 | 8.26577 | 8548 ft | 260 kts | 293° |
| 2026-05-07 10:38 | 49.90176 | 8.24180 | 9413 ft | 262 kts | 305° |
| 2026-05-07 10:38 | 49.91272 | 8.21893 | 10170 ft | 266 kts | 307° |
| 2026-05-07 10:38 | 49.92394 | 8.19587 | 10883 ft | 270 kts | 307° |
| 2026-05-07 10:39 | 49.93516 | 8.17228 | 11606 ft | 273 kts | 307° |
| 2026-05-07 10:39 | 49.94791 | 8.15037 | 12312 ft | 276 kts | 318° |
| 2026-05-07 10:39 | 49.96260 | 8.13080 | 13014 ft | 280 kts | 320° |
| 2026-05-07 10:39 | 49.97766 | 8.11120 | 13735 ft | 284 kts | 320° |
| 2026-05-07 10:40 | 49.99275 | 8.09111 | 14369 ft | 288 kts | 319° |
| 2026-05-07 10:40 | 50.00799 | 8.07059 | 14972 ft | 293 kts | 319° |
| 2026-05-07 10:40 | 50.02380 | 8.04938 | 15305 ft | 307 kts | 319° |
| 2026-05-07 10:40 | 50.04021 | 8.02744 | 15579 ft | 323 kts | 319° |
| 2026-05-07 10:41 | 50.05768 | 8.00405 | 15800 ft | 339 kts | 319° |
| 2026-05-07 10:41 | 50.07596 | 7.97950 | 16092 ft | 353 kts | 319° |
| 2026-05-07 10:41 | 50.09483 | 7.95414 | 16505 ft | 362 kts | 319° |
| 2026-05-07 10:41 | 50.11410 | 7.92822 | 17006 ft | 369 kts | 319° |
| 2026-05-07 10:42 | 50.13366 | 7.90189 | 17554 ft | 375 kts | 319° |
| 2026-05-07 10:42 | 50.15373 | 7.87484 | 17881 ft | 386 kts | 319° |
| 2026-05-07 10:42 | 50.17430 | 7.84707 | 18199 ft | 397 kts | 319° |
| 2026-05-07 10:42 | 50.19540 | 7.81857 | 18598 ft | 404 kts | 319° |
| 2026-05-07 10:43 | 50.21676 | 7.78967 | 19047 ft | 408 kts | 319° |
| 2026-05-07 10:43 | 50.23828 | 7.76051 | 19524 ft | 412 kts | 319° |
| 2026-05-07 10:43 | 50.26157 | 7.73436 | 20046 ft | 413 kts | 331° |
| 2026-05-07 10:43 | 50.28720 | 7.71565 | 20750 ft | 410 kts | 336° |
| 2026-05-07 10:44 | 50.31332 | 7.69789 | 21424 ft | 408 kts | 336° |
| 2026-05-07 10:44 | 50.33938 | 7.68030 | 22027 ft | 408 kts | 336° |
| 2026-05-07 10:44 | 50.36546 | 7.66242 | 22605 ft | 408 kts | 336° |
| 2026-05-07 10:44 | 50.39151 | 7.64441 | 23150 ft | 409 kts | 336° |
| 2026-05-07 10:45 | 50.41765 | 7.62642 | 23662 ft | 411 kts | 336° |
| 2026-05-07 10:45 | 50.44395 | 7.60838 | 24064 ft | 413 kts | 336° |
| 2026-05-07 10:45 | 50.47032 | 7.59024 | 24454 ft | 415 kts | 336° |
| 2026-05-07 10:45 | 50.49682 | 7.57194 | 24832 ft | 417 kts | 336° |
| 2026-05-07 10:46 | 50.52346 | 7.55352 | 25218 ft | 419 kts | 336° |
| 2026-05-07 10:46 | 50.55017 | 7.53499 | 25592 ft | 421 kts | 335° |
| 2026-05-07 10:46 | 50.57561 | 7.51192 | 25950 ft | 422 kts | 327° |
| 2026-05-07 10:46 | 50.59998 | 7.48692 | 26281 ft | 425 kts | 327° |
| 2026-05-07 10:47 | 50.62478 | 7.46135 | 26609 ft | 427 kts | 327° |
| 2026-05-07 10:47 | 50.64978 | 7.43574 | 26961 ft | 430 kts | 327° |
| 2026-05-07 10:47 | 50.67502 | 7.40995 | 27275 ft | 432 kts | 327° |
| 2026-05-07 10:47 | 50.70026 | 7.38391 | 27611 ft | 434 kts | 325° |
| 2026-05-07 10:48 | 50.72321 | 7.35287 | 27922 ft | 436 kts | 313° |
| 2026-05-07 10:48 | 50.74164 | 7.31467 | 28225 ft | 439 kts | 301° |
| 2026-05-07 10:48 | 50.75467 | 7.27108 | 28531 ft | 442 kts | 289° |
| 2026-05-07 10:48 | 50.76281 | 7.22419 | 28839 ft | 444 kts | 284° |
| 2026-05-07 10:49 | 50.77014 | 7.17673 | 29131 ft | 446 kts | 284° |
| 2026-05-07 10:49 | 50.77741 | 7.12886 | 29429 ft | 448 kts | 284° |
| 2026-05-07 10:49 | 50.78470 | 7.08167 | 29870 ft | 446 kts | 284° |
| 2026-05-07 10:49 | 50.79209 | 7.03425 | 30419 ft | 441 kts | 284° |
| 2026-05-07 10:50 | 50.79928 | 6.98752 | 30971 ft | 435 kts | 284° |
| 2026-05-07 10:50 | 50.80633 | 6.94120 | 31471 ft | 430 kts | 284° |
| 2026-05-07 10:50 | 50.81330 | 6.89548 | 31954 ft | 426 kts | 284° |
| 2026-05-07 10:50 | 50.82025 | 6.85003 | 32387 ft | 423 kts | 284° |
| 2026-05-07 10:51 | 50.82712 | 6.80483 | 32808 ft | 421 kts | 284° |
| 2026-05-07 10:51 | 50.83383 | 6.76050 | 33190 ft | 419 kts | 284° |
| 2026-05-07 10:51 | 50.84060 | 6.71563 | 33560 ft | 418 kts | 284° |
| 2026-05-07 10:51 | 50.84732 | 6.67102 | 33943 ft | 417 kts | 284° |
| 2026-05-07 10:52 | 50.85402 | 6.62647 | 34266 ft | 416 kts | 284° |
| 2026-05-07 10:52 | 50.86067 | 6.58202 | 34572 ft | 414 kts | 284° |
| 2026-05-07 10:52 | 50.86730 | 6.53762 | 34846 ft | 414 kts | 283° |
| 2026-05-07 10:52 | 50.87392 | 6.49321 | 35031 ft | 412 kts | 283° |
| 2026-05-07 10:53 | 50.88696 | 6.40526 | 35031 ft | 409 kts | 283° |
| 2026-05-07 10:53 | 50.89987 | 6.31771 | 35047 ft | 416 kts | 283° |
| 2026-05-07 10:54 | 50.91319 | 6.22691 | 35056 ft | 428 kts | 283° |
| 2026-05-07 10:54 | 50.92661 | 6.13481 | 35061 ft | 430 kts | 283° |
| 2026-05-07 10:55 | 50.94001 | 6.04234 | 35059 ft | 430 kts | 283° |
| 2026-05-07 10:55 | 50.95333 | 5.94986 | 35057 ft | 430 kts | 283° |
| 2026-05-07 10:56 | 50.96659 | 5.85720 | 35080 ft | 430 kts | 283° |
| 2026-05-07 10:56 | 50.97978 | 5.76445 | 35085 ft | 431 kts | 282° |
| 2026-05-07 10:57 | 50.99291 | 5.67160 | 35083 ft | 431 kts | 282° |
| 2026-05-07 10:57 | 51.00585 | 5.57957 | 35045 ft | 429 kts | 282° |
| 2026-05-07 10:58 | 51.01878 | 5.48697 | 35045 ft | 429 kts | 282° |
| 2026-05-07 10:58 | 51.03165 | 5.39420 | 35041 ft | 429 kts | 282° |
| 2026-05-07 10:59 | 51.04444 | 5.30149 | 35043 ft | 429 kts | 282° |
| 2026-05-07 10:59 | 51.05716 | 5.20868 | 35049 ft | 429 kts | 282° |
| 2026-05-07 11:00 | 51.06977 | 5.11612 | 35047 ft | 428 kts | 281° |
| 2026-05-07 11:00 | 51.08222 | 5.02408 | 35058 ft | 428 kts | 281° |
| 2026-05-07 11:01 | 51.09469 | 4.93138 | 35058 ft | 428 kts | 281° |
| 2026-05-07 11:01 | 51.10707 | 4.83869 | 35067 ft | 428 kts | 281° |
| 2026-05-07 11:02 | 51.11938 | 4.74595 | 35065 ft | 428 kts | 281° |
| 2026-05-07 11:02 | 51.12955 | 4.66887 | 35078 ft | 428 kts | 281° |
| 2026-05-07 11:03 | 51.14174 | 4.57598 | 35085 ft | 428 kts | 281° |
| 2026-05-07 11:03 | 51.15384 | 4.48310 | 35085 ft | 428 kts | 281° |
| 2026-05-07 11:04 | 51.16579 | 4.39075 | 35082 ft | 428 kts | 281° |
| 2026-05-07 11:04 | 51.17777 | 4.29766 | 35082 ft | 428 kts | 281° |
| 2026-05-07 11:05 | 51.18963 | 4.20475 | 35077 ft | 428 kts | 281° |
| 2026-05-07 11:05 | 51.20143 | 4.11178 | 35074 ft | 428 kts | 280° |
| 2026-05-07 11:06 | 51.21317 | 4.01861 | 35068 ft | 428 kts | 280° |
| 2026-05-07 11:06 | 51.22476 | 3.92602 | 35058 ft | 428 kts | 280° |
| 2026-05-07 11:07 | 51.23635 | 3.83273 | 35060 ft | 428 kts | 280° |
| 2026-05-07 11:07 | 51.24785 | 3.73960 | 35061 ft | 428 kts | 280° |
| 2026-05-07 11:08 | 51.25928 | 3.64640 | 35059 ft | 427 kts | 280° |
| 2026-05-07 11:08 | 51.27062 | 3.55323 | 35059 ft | 427 kts | 280° |
| 2026-05-07 11:09 | 51.28189 | 3.45998 | 35062 ft | 427 kts | 280° |
| 2026-05-07 11:09 | 51.29303 | 3.36717 | 35067 ft | 428 kts | 280° |
| 2026-05-07 11:10 | 51.30417 | 3.27370 | 35077 ft | 428 kts | 279° |
| 2026-05-07 11:10 | 51.31524 | 3.18017 | 35081 ft | 428 kts | 279° |
| 2026-05-07 11:11 | 51.32624 | 3.08657 | 35081 ft | 428 kts | 279° |
| 2026-05-07 11:11 | 51.33715 | 2.99295 | 35078 ft | 428 kts | 279° |
| 2026-05-07 11:12 | 51.34793 | 2.89988 | 35075 ft | 428 kts | 279° |
| 2026-05-07 11:12 | 51.35870 | 2.80618 | 35080 ft | 429 kts | 279° |
| 2026-05-07 11:13 | 51.36942 | 2.71216 | 35074 ft | 429 kts | 279° |
| 2026-05-07 11:13 | 51.38007 | 2.61813 | 35080 ft | 429 kts | 279° |
| 2026-05-07 11:14 | 51.39064 | 2.52401 | 35081 ft | 429 kts | 279° |
| 2026-05-07 11:14 | 51.40113 | 2.42994 | 35081 ft | 429 kts | 279° |
| 2026-05-07 11:15 | 51.41150 | 2.33625 | 35087 ft | 429 kts | 279° |
| 2026-05-07 11:15 | 51.42185 | 2.24207 | 35085 ft | 429 kts | 279° |
| 2026-05-07 11:16 | 51.43213 | 2.14770 | 35092 ft | 429 kts | 279° |
| 2026-05-07 11:16 | 51.44228 | 2.05381 | 35090 ft | 429 kts | 279° |
| 2026-05-07 11:17 | 51.45242 | 1.95926 | 35088 ft | 429 kts | 279° |
| 2026-05-07 11:17 | 51.46248 | 1.86471 | 35089 ft | 431 kts | 279° |
| 2026-05-07 11:18 | 51.47248 | 1.77001 | 35095 ft | 431 kts | 279° |
| 2026-05-07 11:18 | 51.48240 | 1.67529 | 35095 ft | 431 kts | 279° |
| 2026-05-07 11:19 | 51.48630 | 1.62777 | 35102 ft | 429 kts | 268° |
| 2026-05-07 11:19 | 51.48189 | 1.58052 | 35105 ft | 430 kts | 252° |
| 2026-05-07 11:19 | 51.46124 | 1.49130 | 34985 ft | 429 kts | 249° |
| 2026-05-07 11:20 | 51.45063 | 1.44642 | 34601 ft | 432 kts | 250° |
| 2026-05-07 11:20 | 51.44004 | 1.40129 | 34247 ft | 433 kts | 244° |
| 2026-05-07 11:20 | 51.42273 | 1.36210 | 33919 ft | 433 kts | 224° |
| 2026-05-07 11:20 | 51.39948 | 1.33178 | 33602 ft | 429 kts | 216° |
| 2026-05-07 11:21 | 51.37532 | 1.30463 | 33452 ft | 418 kts | 215° |
| 2026-05-07 11:21 | 51.35204 | 1.27798 | 33297 ft | 405 kts | 217° |
| 2026-05-07 11:21 | 51.32973 | 1.25103 | 32993 ft | 397 kts | 218° |
| 2026-05-07 11:21 | 51.30786 | 1.22467 | 32609 ft | 391 kts | 217° |
| 2026-05-07 11:22 | 51.28619 | 1.19926 | 31803 ft | 384 kts | 217° |
| 2026-05-07 11:22 | 51.26470 | 1.17425 | 30234 ft | 382 kts | 217° |
| 2026-05-07 11:22 | 51.24322 | 1.14898 | 28237 ft | 384 kts | 217° |
| 2026-05-07 11:22 | 51.22171 | 1.12356 | 26162 ft | 386 kts | 217° |
| 2026-05-07 11:23 | 51.20032 | 1.09843 | 24034 ft | 388 kts | 217° |
| 2026-05-07 11:23 | 51.17841 | 1.07283 | 22380 ft | 395 kts | 217° |
| 2026-05-07 11:23 | 51.15658 | 1.04734 | 21939 ft | 385 kts | 217° |
| 2026-05-07 11:23 | 51.13516 | 1.02229 | 21387 ft | 379 kts | 217° |
| 2026-05-07 11:24 | 51.11403 | 0.99758 | 20816 ft | 375 kts | 217° |
| 2026-05-07 11:24 | 51.09307 | 0.97314 | 20284 ft | 371 kts | 217° |
| 2026-05-07 11:24 | 51.07258 | 0.94923 | 20103 ft | 357 kts | 218° |
| 2026-05-07 11:24 | 51.05543 | 0.92216 | 19781 ft | 345 kts | 235° |
| 2026-05-07 11:25 | 51.04406 | 0.88823 | 19088 ft | 349 kts | 244° |
| 2026-05-07 11:25 | 51.03379 | 0.85315 | 18461 ft | 351 kts | 245° |
| 2026-05-07 11:25 | 51.02353 | 0.81794 | 17827 ft | 350 kts | 244° |
| 2026-05-07 11:25 | 51.01318 | 0.78343 | 17211 ft | 349 kts | 244° |
| 2026-05-07 11:26 | 51.00268 | 0.74873 | 16628 ft | 347 kts | 244° |
| 2026-05-07 11:26 | 50.99235 | 0.71427 | 16053 ft | 345 kts | 244° |
| 2026-05-07 11:26 | 50.98211 | 0.68000 | 15500 ft | 342 kts | 244° |
| 2026-05-07 11:26 | 50.97188 | 0.64595 | 15063 ft | 337 kts | 244° |
| 2026-05-07 11:27 | 50.96196 | 0.61309 | 14993 ft | 322 kts | 244° |
| 2026-05-07 11:27 | 50.95265 | 0.58224 | 14986 ft | 306 kts | 244° |
| 2026-05-07 11:27 | 50.94369 | 0.55254 | 14982 ft | 291 kts | 244° |
| 2026-05-07 11:27 | 50.93515 | 0.52430 | 14983 ft | 278 kts | 244° |
| 2026-05-07 11:28 | 50.92697 | 0.49727 | 14986 ft | 268 kts | 244° |
| 2026-05-07 11:28 | 50.91863 | 0.46977 | 15012 ft | 291 kts | 244° |
| 2026-05-07 11:28 | 50.91319 | 0.43751 | 15036 ft | 321 kts | 270° |
| 2026-05-07 11:28 | 50.91694 | 0.40136 | 15030 ft | 340 kts | 286° |
| 2026-05-07 11:29 | 50.92494 | 0.36615 | 15013 ft | 341 kts | 290° |
| 2026-05-07 11:29 | 50.93337 | 0.33090 | 14916 ft | 341 kts | 288° |
| 2026-05-07 11:29 | 50.94023 | 0.29499 | 14487 ft | 340 kts | 284° |
| 2026-05-07 11:29 | 50.94553 | 0.25859 | 13957 ft | 338 kts | 277° |
| 2026-05-07 11:30 | 50.94885 | 0.22187 | 13391 ft | 336 kts | 278° |
| 2026-05-07 11:30 | 50.95238 | 0.18539 | 12840 ft | 334 kts | 278° |
| 2026-05-07 11:30 | 50.95564 | 0.14903 | 12291 ft | 332 kts | 277° |
| 2026-05-07 11:30 | 50.95867 | 0.11331 | 11776 ft | 329 kts | 277° |
| 2026-05-07 11:31 | 50.96175 | 0.07744 | 11255 ft | 327 kts | 277° |
| 2026-05-07 11:31 | 50.96490 | 0.04174 | 10749 ft | 325 kts | 277° |
| 2026-05-07 11:31 | 50.96800 | 0.00632 | 10253 ft | 323 kts | 277° |
| 2026-05-07 11:31 | 50.97104 | -0.02895 | 9751 ft | 322 kts | 277° |
| 2026-05-07 11:32 | 50.97700 | -0.09830 | 8773 ft | 307 kts | 277° |
| 2026-05-07 11:32 | 50.97980 | -0.13082 | 8230 ft | 287 kts | 277° |
| 2026-05-07 11:32 | 50.98239 | -0.16113 | 7573 ft | 267 kts | 277° |
| 2026-05-07 11:33 | 50.98489 | -0.18938 | 7052 ft | 249 kts | 280° |
| 2026-05-07 11:33 | 50.98902 | -0.21502 | 6610 ft | 232 kts | 283° |
| 2026-05-07 11:33 | 50.99274 | -0.23934 | 6133 ft | 222 kts | 283° |
| 2026-05-07 11:33 | 50.99624 | -0.26183 | 6059 ft | 206 kts | 283° |
| 2026-05-07 11:34 | 50.99984 | -0.28422 | 6066 ft | 209 kts | 284° |
| 2026-05-07 11:34 | 51.00338 | -0.30616 | 6080 ft | 210 kts | 284° |
| 2026-05-07 11:34 | 51.00702 | -0.32897 | 6075 ft | 212 kts | 284° |
| 2026-05-07 11:34 | 51.01064 | -0.35161 | 5903 ft | 210 kts | 284° |
| 2026-05-07 11:35 | 51.01411 | -0.37336 | 5683 ft | 196 kts | 283° |
| 2026-05-07 11:35 | 51.01739 | -0.39389 | 5191 ft | 190 kts | 284° |
| 2026-05-07 11:35 | 51.02060 | -0.41410 | 4650 ft | 188 kts | 283° |
| 2026-05-07 11:35 | 51.02376 | -0.43392 | 4147 ft | 181 kts | 284° |
| 2026-05-07 11:36 | 51.02675 | -0.45271 | 3715 ft | 171 kts | 283° |
| 2026-05-07 11:36 | 51.02963 | -0.47088 | 3222 ft | 168 kts | 283° |
| 2026-05-07 11:36 | 51.03242 | -0.48849 | 3080 ft | 164 kts | 284° |
| 2026-05-07 11:36 | 51.03553 | -0.50583 | 2972 ft | 166 kts | 292° |
| 2026-05-07 11:37 | 51.04169 | -0.52139 | 2706 ft | 168 kts | 310° |
| 2026-05-07 11:37 | 51.05054 | -0.53310 | 2576 ft | 164 kts | 328° |
| 2026-05-07 11:37 | 51.06113 | -0.54002 | 2579 ft | 163 kts | 346° |
| 2026-05-07 11:37 | 51.07206 | -0.54150 | 2576 ft | 157 kts | 3° |
| 2026-05-07 11:38 | 51.08279 | -0.53786 | 2574 ft | 157 kts | 20° |
| 2026-05-07 11:38 | 51.09233 | -0.52944 | 2570 ft | 156 kts | 37° |
| 2026-05-07 11:38 | 51.09967 | -0.51752 | 2561 ft | 147 kts | 53° |
| 2026-05-07 11:38 | 51.10494 | -0.50351 | 2563 ft | 147 kts | 68° |
| 2026-05-07 11:39 | 51.10745 | -0.48784 | 2564 ft | 148 kts | 78° |
| 2026-05-07 11:39 | 51.10962 | -0.47189 | 2568 ft | 147 kts | 78° |
| 2026-05-07 11:39 | 51.11194 | -0.45491 | 2587 ft | 166 kts | 78° |
| 2026-05-07 11:39 | 51.11438 | -0.43711 | 2587 ft | 166 kts | 78° |
| 2026-05-07 11:40 | 51.11682 | -0.41934 | 2588 ft | 166 kts | 78° |
| 2026-05-07 11:40 | 51.11929 | -0.40130 | 2585 ft | 167 kts | 78° |
| 2026-05-07 11:40 | 51.12178 | -0.38320 | 2475 ft | 169 kts | 78° |
| 2026-05-07 11:40 | 51.12425 | -0.36516 | 2255 ft | 164 kts | 78° |
| 2026-05-07 11:41 | 51.12661 | -0.34792 | 2032 ft | 157 kts | 78° |
| 2026-05-07 11:41 | 51.12894 | -0.33097 | 1822 ft | 156 kts | 78° |
| 2026-05-07 11:41 | 51.13121 | -0.31439 | 1604 ft | 148 kts | 78° |
| 2026-05-07 11:41 | 51.13335 | -0.29842 | 1411 ft | 153 kts | 78° |
| 2026-05-07 11:42 | 51.13560 | -0.28196 | 1197 ft | 148 kts | 78° |
| 2026-05-07 11:42 | 51.13781 | -0.26585 | 993 ft | 150 kts | 78° |
| 2026-05-07 11:42 | 51.14003 | -0.24966 | 786 ft | 149 kts | 78° |
| 2026-05-07 11:42 | 51.14216 | -0.23400 | 568 ft | 138 kts | 78° |
| 2026-05-07 11:43 | 51.14405 | -0.21967 | 398 ft | 133 kts | 77° |
| 2026-05-07 11:43 | 51.14594 | -0.20566 | 253 ft | 128 kts | 76° |
| 2026-05-07 11:43 | 51.14760 | -0.19390 | 211 ft | 78 kts | 77° |
| 2026-05-07 11:43 | 51.14843 | -0.18814 | 210 ft | 39 kts | 78° |
| 2026-05-07 11:44 | 51.14930 | -0.18540 | 215 ft | 24 kts | 52° |
| 2026-05-07 11:44 | 51.15006 | -0.18381 | 217 ft | 13 kts | 53° |
| 2026-05-07 11:44 | 51.15039 | -0.18314 | 216 ft | 1 kts | 52° |
| 2026-05-07 11:44 | 51.15049 | -0.18295 | 211 ft | 4 kts | 52° |
| 2026-05-07 11:45 | 51.15064 | -0.18263 | 212 ft | 4 kts | 52° |
| 2026-05-07 11:45 | 51.15087 | -0.18222 | 206 ft | 6 kts | 46° |
| 2026-05-07 11:45 | 51.15130 | -0.18191 | 211 ft | 8 kts | 1° |
| 2026-05-07 11:45 | 51.15161 | -0.18198 | 207 ft | 3 kts | 348° |
| 2026-05-07 11:46 | 51.15195 | -0.18209 | 211 ft | 8 kts | 347° |
| 2026-05-07 11:46 | 51.15273 | -0.18236 | 210 ft | 15 kts | 347° |
| 2026-05-07 11:46 | 51.15392 | -0.18277 | 217 ft | 18 kts | 353° |
| 2026-05-07 11:46 | 51.15446 | -0.18221 | 206 ft | 4 kts | 83° |
| 2026-05-07 11:47 | 51.15451 | -0.18169 | 214 ft | 7 kts | 80° |
| 2026-05-07 11:47 | 51.15465 | -0.18050 | 210 ft | 15 kts | 78° |
| 2026-05-07 11:47 | 51.15494 | -0.17841 | 208 ft | 23 kts | 78° |
| 2026-05-07 11:47 | 51.15530 | -0.17581 | 209 ft | 22 kts | 77° |
| 2026-05-07 11:48 | 51.15584 | -0.17410 | 214 ft | 15 kts | 62° |
| 2026-05-07 11:48 | 51.15615 | -0.17244 | 213 ft | 16 kts | 76° |
| 2026-05-07 11:48 | 51.15642 | -0.17062 | 206 ft | 17 kts | 77° |
| 2026-05-07 11:48 | 51.15653 | -0.16956 | 208 ft | 7 kts | 92° |
| 2026-05-07 11:49 | 51.15633 | -0.16917 | 210 ft | 4 kts | 159° |
| 2026-05-07 11:49 | 51.15590 | -0.16900 | 214 ft | 6 kts | 168° |
| 2026-05-07 11:49 | 51.15577 | -0.16895 | 213 ft | 0 kts | 167° |